< Typhoon 199318 1993 Season Typhoon 199320 >
Typhoon 199319 (ED)
General InformationDetailed Track InformationTrack Information on Google MapsList of All Images || Disaster Info.ResourceGoogle EarthGE AnimationAtom FeedGeoJSON
Detalied Best Track Wind (Time Zone = UTC)
Year Month Day Hour Lat. Long. Wind (kt) Gust (kt) Direc. of Major Storm Axis Radius of Major Storm Axis (nm) Radius of Minor Storm Axis (nm) Direc. of Major Gale Axis Radius of Major Gale Axis (nm) Radius of Minor Gale Axis (nm) Image
1993 9 30 00 12.5 146.0 0 0 - - - - - - Image
1993 9 30 06 13.0 145.7 0 0 - - - - - - Image
1993 9 30 12 13.4 145.3 0 0 - - - - - - Image
1993 9 30 18 13.8 144.3 35 0 - - - symmetric 40 40 Image
1993 10 1 00 14.1 143.3 40 0 - - - symmetric 50 50 Image
1993 10 1 06 14.2 142.7 45 0 - - - symmetric 60 60 Image
1993 10 1 12 14.3 142.0 55 0 symmetric 30 30 symmetric 100 100 Image
1993 10 1 18 14.6 141.3 60 0 symmetric 40 40 symmetric 150 150 Image
1993 10 2 00 15.0 140.5 70 0 symmetric 60 60 symmetric 200 200 Image
1993 10 2 06 15.4 139.8 70 0 symmetric 60 60 symmetric 200 200 Image
1993 10 2 12 16.1 138.7 70 0 symmetric 60 60 symmetric 200 200 Image
1993 10 2 18 16.8 137.6 75 0 symmetric 80 80 symmetric 210 210 Image
1993 10 3 00 17.4 136.6 75 0 symmetric 90 90 symmetric 210 210 Image
1993 10 3 06 17.9 135.8 80 0 symmetric 100 100 symmetric 210 210 Image
1993 10 3 12 18.3 135.2 80 0 symmetric 100 100 symmetric 210 210 Image
1993 10 3 18 18.8 134.3 80 0 symmetric 100 100 symmetric 210 210 Image
1993 10 4 00 19.2 133.6 85 0 symmetric 120 120 symmetric 210 210 Image
1993 10 4 06 19.5 133.0 90 0 symmetric 130 130 symmetric 240 240 Image
1993 10 4 12 19.8 132.7 95 0 symmetric 150 150 symmetric 260 260 Image
1993 10 4 18 20.3 132.5 100 0 symmetric 160 160 symmetric 260 260 Image
1993 10 5 00 20.9 132.6 100 0 symmetric 150 150 symmetric 260 260 Image
1993 10 5 06 21.6 132.8 100 0 symmetric 140 140 symmetric 260 260 Image
1993 10 5 09 21.9 132.9 100 0 symmetric 140 140 symmetric 260 260 Image
1993 10 5 12 22.2 133.1 95 0 symmetric 130 130 symmetric 260 260 Image
1993 10 5 15 22.5 133.2 90 0 symmetric 120 120 symmetric 260 260 Image
1993 10 5 18 22.9 133.4 85 0 symmetric 120 120 E 325 220 Image
1993 10 5 21 23.4 133.7 85 0 symmetric 120 120 E 325 220 Image
1993 10 6 00 23.8 134.0 80 0 symmetric 110 110 E 350 240 Image
1993 10 6 06 24.8 134.7 80 0 symmetric 110 110 N 450 350 Image
1993 10 6 12 25.6 135.6 80 0 symmetric 110 110 N 450 350 Image
1993 10 6 18 27.0 136.6 75 0 symmetric 110 110 N 450 300 Image
1993 10 7 00 28.5 137.8 70 0 symmetric 100 100 symmetric 350 350 Image
1993 10 7 03 29.3 138.6 70 0 symmetric 100 100 symmetric 350 350 Image
1993 10 7 06 30.1 139.6 65 0 symmetric 100 100 symmetric 325 325 Image
1993 10 7 09 30.8 140.4 60 0 symmetric 90 90 symmetric 300 300 Image
1993 10 7 12 31.6 141.3 60 0 symmetric 80 80 symmetric 260 260 Image
1993 10 7 15 32.3 142.3 60 0 symmetric 80 80 symmetric 260 260 Image
1993 10 7 18 33.1 143.5 55 0 symmetric 70 70 E 260 200 Image
1993 10 7 21 33.9 144.9 55 0 symmetric 60 60 E 240 200 Image
1993 10 8 00 34.7 146.3 50 0 - - - E 300 200 Image
1993 10 8 06 35.7 149.6 50 0 - - - E 300 200 Image
1993 10 8 12 37.0 152.5 0 0 - - - - - - Image
1993 10 8 18 39.0 156.0 0 0 - - - - - - Image
1993 10 9 00 41.5 159.0 0 0 - - - - - - Image
Japan Meteorological Agency Best Track Data | Correction Date : 1994-01-10
< Typhoon 199318 1993 Season Typhoon 199320 >

Help